This is the latest recevied weather packets stored in our database for station/object HS1AXC-1. If no packets are shown the sender has not sent any weather packets the latest 10 day(s).
| Time | Temp. | Humidity | Pressure | Rain* | Wind** | Luminosity | Snow |
|---|---|---|---|---|---|---|---|
| 1777700896 | 38.33° C | 51% | 1009 hPa | - | - | 3 W/m² | - |
| 1777700274 | 37.78° C | 53% | 1009 hPa | - | - | 3 W/m² | - |
| 1777699652 | 37.78° C | 53% | 1009 hPa | - | - | 1 W/m² | - |
| 1777699030 | 37.78° C | 53% | 1009 hPa | - | - | 1 W/m² | - |
| 1777698408 | 37.78° C | 56% | 1009 hPa | - | - | 3 W/m² | - |
| 1777697786 | 37.22° C | 56% | 1009 hPa | - | - | 2 W/m² | - |
| 1777697164 | 37.22° C | 56% | 1010 hPa | - | - | 3 W/m² | - |
| 1777696542 | 36.11° C | 60% | 1010 hPa | - | - | 2 W/m² | - |
| 1777695920 | 36.11° C | 59% | 1010 hPa | - | - | 2 W/m² | - |
| 1777695297 | 36.67° C | 60% | 1010 hPa | - | - | 2 W/m² | - |
| 1777694675 | 36.11° C | 65% | 1010 hPa | - | - | 2 W/m² | - |
| 1777694053 | 36.11° C | 65% | 1010 hPa | - | - | 2 W/m² | - |
| 1777693431 | 36.11° C | 68% | 1010 hPa | - | - | 2 W/m² | - |
| 1777692809 | 35.56° C | 71% | 1011 hPa | - | - | 2 W/m² | - |
| 1777692187 | 34.44° C | 78% | 1011 hPa | - | - | 2 W/m² | - |
| 1777691565 | 35° C | 78% | 1011 hPa | - | - | 2 W/m² | - |
| 1777690943 | 34.44° C | 81% | 1011 hPa | - | - | 2 W/m² | - |
| 1777690321 | 33.89° C | 83% | 1011 hPa | - | - | 2 W/m² | - |
| 1777689699 | 33.89° C | 85% | 1011 hPa | - | - | 2 W/m² | - |
| 1777689077 | 33.89° C | 84% | 1011 hPa | - | - | 2 W/m² | - |
| 1777688455 | 33.33° C | 84% | 1011 hPa | - | - | 1 W/m² | - |
| 1777687833 | 33.33° C | 85% | 1011 hPa | - | - | 2 W/m² | - |
| 1777687211 | 32.78° C | 86% | 1011 hPa | - | - | 2 W/m² | - |
| 1777686589 | 31.67° C | 89% | 1011 hPa | - | - | 1 W/m² | - |
| 1777685967 | 31.67° C | 90% | 1011 hPa | - | - | 1 W/m² | - |
* Rain since midnight (hover to see other rain measurements)
** Current wind speed in m/s (hover to see current wind gust speed)